Time;durP1;ratioP1;P1;durP2;ratioP2;P2;SDS_P1;SDS_P2;PMS_P1;PMS_P2;Temp;Humidity;BMP_temperature;BMP_pressure;BME280_temperature;BME280_humidity;BME280_pressure;Samples;Min_cycle;Max_cycle;Signal;HPM_P1;HPM_P2
2022/12/23 00:00:18;;;;;;;20.52;10.50;;;;;;;12.53;70.51;99714.13;672527;29;1172;-83
2022/12/23 00:00:39;;;;;;;18.85;10.32;;;;;;;12.57;70.34;99719.38;670160;29;1064;-83
2022/12/23 00:01:02;;;;;;;19.33;10.45;;;;;;;12.50;70.48;99712.38;675317;29;1039;-83
2022/12/23 00:01:24;;;;;;;19.00;10.45;;;;;;;12.50;70.29;99715.00;672898;29;880;-83
2022/12/23 00:01:45;;;;;;;18.70;10.15;;;;;;;12.46;70.13;99702.75;672559;29;1337;-83
2022/12/23 00:02:05;;;;;;;18.38;10.10;;;;;;;12.45;70.56;99701.00;672691;29;1302;-83
2022/12/23 00:02:26;;;;;;;21.15;10.02;;;;;;;12.51;70.10;99711.50;675292;29;1152;-83
2022/12/23 00:02:46;;;;;;;21.60;10.33;;;;;;;12.48;70.04;99708.88;675212;29;1169;-83
2022/12/23 00:03:11;;;;;;;21.83;9.98;;;;;;;12.56;69.92;99712.41;674004;29;1105;-83
2022/12/23 00:03:32;;;;;;;22.02;10.38;;;;;;;12.51;70.39;99713.22;675141;29;1181;-83
2022/12/23 00:03:57;;;;;;;22.15;10.35;;;;;;;12.50;69.96;99707.13;672707;29;1418;-83
2022/12/23 00:04:17;;;;;;;21.52;10.27;;;;;;;12.57;69.89;99714.13;672570;29;1102;-83
2022/12/23 00:04:38;;;;;;;20.83;10.43;;;;;;;12.51;70.05;99700.16;670123;29;1169;-83
2022/12/23 00:04:58;;;;;;;21.08;10.40;;;;;;;12.54;69.84;99714.09;670131;29;1187;-83
2022/12/23 00:05:19;;;;;;;19.58;10.40;;;;;;;12.61;69.87;99717.63;670118;29;1371;-83
2022/12/23 00:05:40;;;;;;;18.87;9.70;;;;;;;12.53;69.91;99707.13;667606;29;999;-83
2022/12/23 00:06:01;;;;;;;19.08;9.65;;;;;;;12.55;69.87;99705.38;667705;29;1045;-83
2022/12/23 00:06:21;;;;;;;18.35;9.35;;;;;;;12.55;69.69;99707.16;672639;29;1202;-83
2022/12/23 00:06:42;;;;;;;18.93;9.50;;;;;;;12.56;69.87;99707.16;677777;29;1154;-83
2022/12/23 00:07:02;;;;;;;19.40;9.65;;;;;;;12.61;69.63;99712.41;672575;29;1096;-83
2022/12/23 00:07:23;;;;;;;20.90;9.80;;;;;;;12.53;70.00;99701.91;672851;29;797;-83
2022/12/23 00:07:43;;;;;;;20.60;9.50;;;;;;;12.62;69.83;99722.00;672593;29;1249;-83
2022/12/23 00:08:05;;;;;;;21.70;9.75;;;;;;;12.57;69.86;99706.28;677876;29;1007;-83
2022/12/23 00:08:26;;;;;;;22.40;10.27;;;;;;;12.55;69.74;99697.53;675200;29;1291;-83
2022/12/23 00:08:47;;;;;;;22.60;10.70;;;;;;;12.58;69.83;99705.41;672768;29;836;-83
2022/12/23 00:09:08;;;;;;;20.10;10.20;;;;;;;12.57;69.75;99703.66;672692;29;944;-83
2022/12/23 00:09:28;;;;;;;19.43;9.57;;;;;;;12.66;69.86;99720.25;675224;29;1190;-82
2022/12/23 00:09:49;;;;;;;17.23;9.33;;;;;;;12.65;69.66;99715.91;672726;29;786;-84
2022/12/23 00:10:10;;;;;;;17.48;9.65;;;;;;;12.64;69.83;99706.31;675185;29;1074;-84
2022/12/23 00:10:30;;;;;;;18.30;10.07;;;;;;;12.63;69.51;99699.31;675395;29;1138;-84
2022/12/23 00:10:53;;;;;;;19.17;10.33;;;;;;;12.66;69.74;99712.41;670076;29;1990;-83
2022/12/23 00:11:29;;;;;;;18.58;10.20;;;;;;;12.51;69.95;99697.53;672696;29;1210;-83
2022/12/23 00:15:08;;;;;;;19.23;10.48;;;;;;;12.51;69.97;99708.00;667437;29;1042;-83
2022/12/23 00:15:28;;;;;;;21.20;10.77;;;;;;;12.48;70.12;99703.66;667420;29;1373;-83
2022/12/23 00:15:49;;;;;;;19.27;10.90;;;;;;;12.50;70.07;99706.25;670123;29;770;-83
2022/12/23 00:16:12;;;;;;;18.33;10.50;;;;;;;12.50;70.06;99707.13;672722;29;1087;-83
2022/12/23 00:16:36;;;;;;;18.27;10.35;;;;;;;12.49;70.21;99705.41;672624;29;992;-83
2022/12/23 00:16:57;;;;;;;20.27;10.80;;;;;;;12.47;70.00;99701.88;675271;29;859;-83
2022/12/23 00:17:17;;;;;;;19.25;10.80;;;;;;;12.51;70.06;99716.72;672627;29;1218;-83
2022/12/23 00:17:44;;;;;;;19.33;10.57;;;;;;;12.54;70.16;99714.09;672699;29;1009;-82
2022/12/23 00:18:05;;;;;;;20.75;10.82;;;;;;;12.51;70.10;99719.34;672616;29;1000;-83
2022/12/23 00:18:25;;;;;;;20.33;11.13;;;;;;;12.53;70.02;99714.97;672613;29;1194;-83
2022/12/23 00:18:46;;;;;;;19.35;11.32;;;;;;;12.51;70.10;99718.47;669991;29;1216;-83
2022/12/23 00:19:06;;;;;;;17.30;10.80;;;;;;;12.47;70.11;99708.00;665009;29;1298;-83
2022/12/23 00:19:27;;;;;;;17.90;11.18;;;;;;;12.51;70.15;99713.22;667620;29;814;-83
2022/12/23 00:19:48;;;;;;;19.98;11.18;;;;;;;12.56;70.06;99711.50;667468;29;1313;-83
2022/12/23 00:20:12;;;;;;;20.17;11.10;;;;;;;12.58;69.99;99723.72;670107;29;1067;-83
2022/12/23 00:20:33;;;;;;;19.35;10.55;;;;;;;12.55;69.94;99717.63;670158;29;1028;-82
2022/12/23 00:21:00;;;;;;;18.30;10.10;;;;;;;12.50;69.93;99711.47;672660;29;1428;-83
2022/12/23 00:21:21;;;;;;;19.45;10.88;;;;;;;12.56;70.02;99714.13;670043;29;1224;-82
2022/12/23 00:21:41;;;;;;;20.27;11.20;;;;;;;12.57;69.60;99708.91;671697;29;1120;-83
2022/12/23 00:22:02;;;;;;;19.63;11.30;;;;;;;12.57;69.61;99718.47;670052;29;1099;-83
2022/12/23 00:23:03;;;;;;;18.25;10.98;;;;;;;12.56;69.66;99706.28;672705;29;1182;-83
2022/12/23 00:23:06;;;;;;;22.88;11.80;;;;;;;12.59;69.54;99719.34;670041;29;1086;-83
2022/12/23 00:23:27;;;;;;;24.33;12.30;;;;;;;12.63;69.65;99715.00;667556;29;1129;-84
2022/12/23 00:23:49;;;;;;;24.83;12.80;;;;;;;12.56;69.83;99703.66;665160;29;864;-83
2022/12/23 00:24:10;;;;;;;23.85;12.55;;;;;;;12.53;69.84;99701.91;670071;29;1268;-83
2022/12/23 00:24:31;;;;;;;21.75;12.40;;;;;;;12.55;69.81;99715.84;672469;29;1271;-83
2022/12/23 00:24:51;;;;;;;22.60;12.60;;;;;;;12.58;69.80;99710.66;672635;29;1140;-83
2022/12/23 00:25:12;;;;;;;22.65;12.60;;;;;;;12.58;69.71;99713.25;670027;29;1090;-83
2022/12/23 00:25:39;;;;;;;23.55;12.75;;;;;;;12.66;69.86;99728.13;672384;29;1379;-83
2022/12/23 00:26:00;;;;;;;21.67;12.57;;;;;;;12.64;69.52;99722.00;675271;29;1020;-83
2022/12/23 00:26:25;;;;;;;21.10;12.32;;;;;;;12.67;69.38;99724.63;675312;29;1240;-83
2022/12/23 00:26:45;;;;;;;22.50;12.27;;;;;;;12.63;69.54;99707.16;674912;29;1116;-83
2022/12/23 00:27:06;;;;;;;24.27;12.95;;;;;;;12.61;69.92;99715.88;672551;29;992;-83
2022/12/23 00:27:26;;;;;;;22.08;13.00;;;;;;;12.60;69.61;99708.03;667599;29;1164;-83
2022/12/23 00:28:00;;;;;;;23.77;13.47;;;;;;;12.58;69.61;99715.88;672611;29;1254;-83
2022/12/23 00:28:22;;;;;;;22.83;13.27;;;;;;;12.69;69.72;99717.63;670071;29;1226;-83
2022/12/23 00:28:44;;;;;;;21.10;12.95;;;;;;;12.69;69.91;99722.88;675150;29;1402;-83
2022/12/23 00:29:04;;;;;;;20.17;12.93;;;;;;;12.61;69.45;99710.66;675148;29;1684;-83
2022/12/23 00:29:25;;;;;;;21.80;13.07;;;;;;;12.66;69.71;99712.41;677919;29;1265;-83
2022/12/23 00:29:45;;;;;;;22.85;12.73;;;;;;;12.68;69.52;99710.66;675181;29;1187;-84
2022/12/23 00:30:09;;;;;;;22.27;12.55;;;;;;;12.68;69.34;99713.28;675131;29;1277;-83
2022/12/23 00:30:29;;;;;;;21.25;12.77;;;;;;;12.64;69.47;99708.94;672647;29;1028;-83
2022/12/23 00:30:54;;;;;;;20.85;12.90;;;;;;;12.72;69.51;99720.28;675049;29;2023;-83
2022/12/23 00:31:19;;;;;;;22.40;12.90;;;;;;;12.65;69.63;99710.66;675076;29;1487;-83
2022/12/23 00:31:40;;;;;;;23.60;12.93;;;;;;;12.66;69.44;99702.81;669997;29;1213;-83
2022/12/23 00:32:01;;;;;;;23.90;13.05;;;;;;;12.71;69.34;99713.28;672600;29;1204;-83
2022/12/23 00:32:21;;;;;;;22.70;12.80;;;;;;;12.69;69.29;99712.41;672626;29;1089;-83
2022/12/23 00:32:43;;;;;;;21.75;12.90;;;;;;;12.82;69.22;99723.78;677899;29;1193;-83
2022/12/23 00:33:04;;;;;;;20.38;12.20;;;;;;;12.78;69.26;99715.03;672582;29;1241;-83
2022/12/23 00:33:27;;;;;;;21.75;12.30;;;;;;;12.74;69.03;99706.31;672596;29;1175;-83
2022/12/23 00:33:50;;;;;;;21.73;12.85;;;;;;;12.79;69.03;99703.69;670069;29;917;-83
2022/12/23 00:34:11;;;;;;;23.70;13.77;;;;;;;12.77;68.96;99710.69;670095;29;1106;-83
2022/12/23 00:34:32;;;;;;;23.35;13.10;;;;;;;12.82;68.89;99710.69;670156;29;1024;-83
2022/12/23 00:34:53;;;;;;;25.30;12.88;;;;;;;12.78;68.65;99712.41;672732;29;1200;-83
2022/12/23 00:35:14;;;;;;;24.23;12.60;;;;;;;12.73;69.09;99703.72;672470;29;1277;-83
2022/12/23 00:35:35;;;;;;;23.60;13.20;;;;;;;12.82;68.91;99722.03;675160;29;1223;-83
2022/12/23 00:35:56;;;;;;;22.15;13.38;;;;;;;12.79;68.73;99715.94;672736;29;854;-83
2022/12/23 00:36:21;;;;;;;24.00;13.85;;;;;;;12.78;68.74;99706.34;669924;29;1467;-83
2022/12/23 00:36:42;;;;;;;26.23;14.13;;;;;;;12.82;69.05;99710.69;669868;29;1389;-84
2022/12/23 00:37:02;;;;;;;27.30;14.23;;;;;;;12.87;68.71;99717.69;672528;29;1083;-83
2022/12/23 00:37:23;;;;;;;26.65;13.82;;;;;;;12.82;68.55;99714.19;670132;29;848;-83
2022/12/23 00:37:43;;;;;;;25.20;13.23;;;;;;;12.82;68.65;99708.94;672627;29;1328;-83
2022/12/23 00:38:04;;;;;;;26.73;12.82;;;;;;;12.88;68.61;99714.22;672486;29;1362;-83
2022/12/23 00:42:54;;;;;;;22.65;12.30;;;;;;;12.92;68.63;99719.44;669974;29;1061;-84
2022/12/23 00:43:14;;;;;;;22.63;12.60;;;;;;;12.91;68.37;99717.69;669959;29;1190;-83
2022/12/23 00:43:35;;;;;;;22.13;12.88;;;;;;;12.88;68.61;99714.22;670438;29;1143;-83
2022/12/23 00:43:56;;;;;;;22.90;12.77;;;;;;;12.86;68.61;99715.94;672682;29;1302;-83
2022/12/23 00:44:17;;;;;;;24.83;13.43;;;;;;;12.82;68.31;99703.72;675130;29;1153;-83
2022/12/23 00:44:37;;;;;;;24.47;13.20;;;;;;;12.87;68.49;99717.69;675186;29;1261;-83
2022/12/23 00:45:14;;;;;;;23.27;13.48;;;;;;;12.84;68.31;99707.19;675165;29;1237;-83
2022/12/23 00:45:35;;;;;;;19.98;12.18;;;;;;;12.91;68.57;99712.47;674891;29;1036;-83
2022/12/23 00:45:55;;;;;;;20.52;11.55;;;;;;;12.82;68.50;99708.06;675290;29;749;-83
2022/12/23 00:46:16;;;;;;;21.67;11.70;;;;;;;12.85;68.59;99713.31;672554;29;1114;-83
2022/12/23 00:46:36;;;;;;;19.60;11.77;;;;;;;12.87;68.27;99716.81;667322;29;1290;-84
2022/12/23 00:46:57;;;;;;;18.40;12.00;;;;;;;12.76;68.57;99703.69;672511;29;1266;-83
2022/12/23 00:49:40;;;;;;;24.17;12.02;;;;;;;12.81;68.47;99717.69;669997;29;1181;-83
2022/12/23 00:50:01;;;;;;;17.38;11.30;;;;;;;12.79;68.60;99710.69;669346;29;1369;-84
2022/12/23 00:50:22;;;;;;;18.27;11.60;;;;;;;12.79;68.78;99706.31;670104;29;1139;-84
2022/12/23 00:50:42;;;;;;;20.63;12.10;;;;;;;12.80;68.59;99709.81;667353;29;1980;-83
2022/12/23 00:51:03;;;;;;;23.65;13.18;;;;;;;12.83;68.42;99712.44;670018;29;1219;-83
2022/12/23 00:51:24;;;;;;;22.73;12.77;;;;;;;12.80;68.72;99707.19;670013;29;1333;-83
2022/12/23 00:51:44;;;;;;;20.93;12.17;;;;;;;12.83;68.50;99715.94;675077;29;1229;-83
2022/12/23 00:52:07;;;;;;;18.55;11.50;;;;;;;12.73;68.55;99708.94;667555;29;1288;-84
2022/12/23 00:52:27;;;;;;;19.23;11.77;;;;;;;12.72;68.68;99707.19;669966;29;1277;-83
2022/12/23 00:52:48;;;;;;;20.50;12.10;;;;;;;12.73;69.11;99715.03;669895;29;1277;-83
2022/12/23 00:53:09;;;;;;;21.08;11.70;;;;;;;12.70;68.87;99715.03;670053;29;1021;-83
2022/12/23 00:53:29;;;;;;;22.20;11.38;;;;;;;12.72;69.00;99709.81;669955;29;1005;-83
2022/12/23 00:53:50;;;;;;;22.77;11.20;;;;;;;12.74;69.01;99716.78;672594;29;1262;-83
2022/12/23 00:54:10;;;;;;;23.52;11.50;;;;;;;12.71;68.83;99711.53;669951;29;996;-84
2022/12/23 00:54:31;;;;;;;23.20;11.20;;;;;;;12.74;69.05;99715.91;672503;29;1174;-83
2022/12/23 00:54:51;;;;;;;22.45;11.20;;;;;;;12.68;68.99;99711.56;672539;29;1054;-83
2022/12/23 00:55:12;;;;;;;23.02;11.50;;;;;;;12.71;69.02;99710.66;672569;29;1264;-83
2022/12/23 00:55:33;;;;;;;20.20;11.47;;;;;;;12.76;69.01;99719.41;672580;29;1031;-84
2022/12/23 00:55:53;;;;;;;19.40;11.48;;;;;;;12.72;69.02;99715.06;675196;29;1163;-84
2022/12/23 00:56:15;;;;;;;19.23;11.30;;;;;;;12.72;69.14;99712.44;669817;29;1145;-83
2022/12/23 00:56:35;;;;;;;19.00;10.93;;;;;;;12.69;68.75;99701.94;669902;29;991;-83
2022/12/23 00:56:56;;;;;;;18.88;10.73;;;;;;;12.72;68.85;99708.06;667419;29;1206;-83
2022/12/23 00:57:17;;;;;;;17.35;10.85;;;;;;;12.70;69.01;99708.91;670014;29;1299;-84
2022/12/23 00:57:37;;;;;;;18.47;11.50;;;;;;;12.76;68.98;99711.56;672537;29;993;-83
2022/12/23 00:57:58;;;;;;;18.60;11.10;;;;;;;12.70;68.76;99714.16;675202;29;1194;-83
2022/12/23 00:58:20;;;;;;;21.83;11.52;;;;;;;12.77;69.09;99715.91;672583;29;1229;-84
2022/12/23 00:58:40;;;;;;;23.02;11.45;;;;;;;12.71;69.06;99703.69;672518;29;1247;-83
2022/12/23 00:59:01;;;;;;;20.70;11.30;;;;;;;12.74;68.90;99708.06;672508;29;1268;-84
2022/12/23 00:59:21;;;;;;;20.75;11.60;;;;;;;12.68;68.85;99694.97;675201;29;1273;-83
2022/12/23 00:59:42;;;;;;;20.97;11.57;;;;;;;12.71;69.00;99700.19;675069;29;1156;-83
2022/12/23 01:00:03;;;;;;;21.98;11.60;;;;;;;12.63;69.02;99691.44;670153;29;1210;-83
2022/12/23 01:05:35;;;;;;;18.88;10.35;;;;;;;12.74;68.97;99705.44;670124;29;773;-83
2022/12/23 01:05:38;;;;;;;17.90;9.82;;;;;;;12.74;68.72;99702.84;669785;29;1269;-83
2022/12/23 01:06:01;;;;;;;18.70;9.57;;;;;;;12.78;68.92;99717.66;672404;29;1440;-83
2022/12/23 01:06:22;;;;;;;20.30;10.10;;;;;;;12.74;68.92;99708.91;675081;29;1368;-84
2022/12/23 01:06:42;;;;;;;17.83;9.95;;;;;;;12.74;68.69;99701.06;674965;29;1245;-83
2022/12/23 01:07:03;;;;;;;19.67;10.17;;;;;;;12.82;68.68;99718.53;674903;29;1297;-83
2022/12/23 01:07:24;;;;;;;19.00;9.70;;;;;;;12.78;68.64;99709.81;675246;29;904;-84
2022/12/23 01:07:45;;;;;;;19.55;9.93;;;;;;;12.79;68.43;99714.16;672481;29;1461;-84
2022/12/23 01:08:10;;;;;;;17.90;9.80;;;;;;;12.80;68.60;99717.66;674999;29;1119;-83
2022/12/23 01:08:31;;;;;;;18.58;10.40;;;;;;;12.79;68.62;99713.31;670014;29;1192;-83
2022/12/23 01:08:52;;;;;;;18.25;10.15;;;;;;;12.77;68.69;99710.69;675089;29;1302;-83
2022/12/23 01:09:12;;;;;;;20.43;10.60;;;;;;;12.78;68.81;99722.91;667528;29;1032;-84
2022/12/23 01:09:34;;;;;;;20.73;10.30;;;;;;;12.77;68.83;99715.91;667440;29;1000;-84
2022/12/23 01:09:54;;;;;;;20.90;10.30;;;;;;;12.74;68.66;99713.31;664902;29;1373;-84
2022/12/23 01:10:15;;;;;;;16.85;9.70;;;;;;;12.69;68.59;99705.44;669883;29;1195;-83
2022/12/23 01:10:37;;;;;;;17.23;9.57;;;;;;;12.77;68.94;99715.06;672451;29;1154;-83
2022/12/23 01:11:02;;;;;;;17.55;9.95;;;;;;;12.74;68.81;99718.53;670060;29;1200;-84
2022/12/23 01:11:23;;;;;;;19.40;10.38;;;;;;;12.77;68.79;99712.44;669832;29;1229;-84
2022/12/23 01:11:44;;;;;;;19.87;10.67;;;;;;;12.70;68.79;99715.03;671400;29;1438;-84
2022/12/23 01:12:04;;;;;;;20.27;10.50;;;;;;;12.69;68.94;99712.41;671786;29;1303;-84
2022/12/23 01:12:25;;;;;;;20.58;10.20;;;;;;;12.70;68.58;99706.28;670039;29;789;-84
2022/12/23 01:12:46;;;;;;;20.63;9.70;;;;;;;12.78;68.87;99714.19;672483;29;1418;-83
2022/12/23 01:13:07;;;;;;;21.40;9.60;;;;;;;12.78;68.54;99716.81;675115;29;1146;-84
2022/12/23 01:13:27;;;;;;;20.08;9.50;;;;;;;12.80;68.28;99712.44;675051;29;1100;-83
2022/12/23 01:13:48;;;;;;;18.00;9.32;;;;;;;12.75;68.72;99709.81;675102;29;1053;-83
2022/12/23 01:14:08;;;;;;;15.00;9.20;;;;;;;12.80;68.54;99720.28;672483;29;1131;-84
2022/12/23 01:14:29;;;;;;;15.65;9.27;;;;;;;12.79;68.48;99718.53;672514;29;1024;-84
2022/12/23 01:14:50;;;;;;;14.52;8.82;;;;;;;12.71;68.65;99708.94;672531;29;1323;-84
2022/12/23 01:15:10;;;;;;;15.67;8.83;;;;;;;12.78;68.25;99715.03;672339;29;1287;-84
2022/12/23 01:15:32;;;;;;;18.30;8.90;;;;;;;12.77;68.62;99715.91;675006;29;1212;-84
2022/12/23 01:15:59;;;;;;;22.52;9.45;;;;;;;12.72;68.76;99712.44;672574;29;836;-84
2022/12/23 01:16:19;;;;;;;21.98;9.63;;;;;;;12.70;68.68;99703.69;672473;29;1108;-84
2022/12/23 01:16:40;;;;;;;19.73;9.30;;;;;;;12.79;69.07;99723.78;669775;29;1087;-84
2022/12/23 01:17:01;;;;;;;17.83;9.23;;;;;;;12.80;68.70;99723.78;672388;29;1405;-83
2022/12/23 01:17:22;;;;;;;16.40;9.20;;;;;;;12.82;68.81;99726.38;669978;29;1041;-83
2022/12/23 01:17:42;;;;;;;20.15;9.80;;;;;;;12.77;68.50;99712.44;672668;29;1013;-84
2022/12/23 01:18:03;;;;;;;19.60;9.53;;;;;;;12.76;68.52;99716.78;672448;29;1172;-84
2022/12/23 01:18:23;;;;;;;22.65;9.70;;;;;;;12.76;68.65;99716.78;675130;29;737;-84
2022/12/23 01:18:44;;;;;;;20.20;9.30;;;;;;;12.75;68.51;99713.31;675129;29;866;-84
2022/12/23 01:19:06;;;;;;;18.97;9.33;;;;;;;12.77;68.56;99713.28;677624;29;1228;-83
2022/12/23 01:19:27;;;;;;;17.17;9.45;;;;;;;12.75;68.50;99715.94;675151;29;816;-84
2022/12/23 01:19:48;;;;;;;19.00;9.85;;;;;;;12.76;68.67;99714.16;675190;29;891;-84
2022/12/23 01:20:09;;;;;;;18.70;9.73;;;;;;;12.82;68.61;99719.44;672427;29;1068;-83
2022/12/23 01:20:29;;;;;;;17.15;9.60;;;;;;;12.75;68.48;99709.81;672508;29;1216;-84
2022/12/23 01:20:50;;;;;;;16.88;9.52;;;;;;;12.80;68.75;99718.56;675107;29;829;-83
2022/12/23 01:21:12;;;;;;;20.45;9.55;;;;;;;12.83;68.64;99720.28;672532;29;1062;-84
2022/12/23 01:21:33;;;;;;;22.25;9.75;;;;;;;12.78;68.81;99722.03;672387;29;1255;-84
2022/12/23 01:21:54;;;;;;;21.38;9.70;;;;;;;12.81;68.32;99712.44;675142;29;1203;-84
2022/12/23 01:22:14;;;;;;;18.60;9.30;;;;;;;12.88;68.43;99724.69;672484;29;1194;-84
2022/12/23 01:22:35;;;;;;;19.53;9.97;;;;;;;12.91;68.40;99721.16;669779;29;1129;-84
2022/12/23 01:23:14;;;;;;;18.88;9.77;;;;;;;12.88;68.28;99729.91;672483;29;1188;-83
2022/12/23 01:23:35;;;;;;;14.98;8.73;;;;;;;12.85;68.53;99719.41;672420;29;1250;-84
2022/12/23 01:23:56;;;;;;;14.85;8.50;;;;;;;12.88;68.23;99724.69;675193;29;1128;-84
2022/12/23 01:24:16;;;;;;;13.48;8.57;;;;;;;12.90;68.41;99724.66;675014;29;1207;-83
2022/12/23 01:24:37;;;;;;;15.75;9.15;;;;;;;12.86;68.25;99721.16;677607;29;1050;-84
2022/12/23 01:24:58;;;;;;;14.87;9.27;;;;;;;12.80;68.31;99715.94;672383;29;1237;-84
2022/12/23 01:25:18;;;;;;;16.70;9.48;;;;;;;12.86;68.20;99726.41;672630;29;1091;-84
2022/12/23 01:26:04;;;;;;;17.65;9.40;;;;;;;12.91;68.08;99730.78;669741;29;1496;-84
2022/12/23 01:26:25;;;;;;;21.42;10.52;;;;;;;12.85;68.25;99729.03;669306;29;1398;-84
2022/12/23 01:26:46;;;;;;;17.85;9.82;;;;;;;12.81;68.30;99714.19;664646;29;1181;-84
2022/12/23 01:27:06;;;;;;;14.50;8.73;;;;;;;12.80;68.08;99720.28;664817;29;1155;-84
2022/12/23 01:27:27;;;;;;;14.15;8.30;;;;;;;12.75;68.14;99715.03;667408;29;1412;-84
2022/12/23 01:27:47;;;;;;;16.95;9.00;;;;;;;12.75;68.42;99712.44;669941;29;1278;-84
2022/12/23 01:28:37;;;;;;;17.70;9.43;;;;;;;12.82;68.51;99722.03;672115;29;1181;-84
2022/12/23 01:28:58;;;;;;;16.70;9.27;;;;;;;12.79;68.56;99723.78;675014;29;1326;-83
2022/12/23 01:29:18;;;;;;;15.98;9.30;;;;;;;12.75;68.55;99712.44;675063;29;1099;-84
2022/12/23 01:29:39;;;;;;;16.63;9.77;;;;;;;12.79;68.46;99721.16;672565;29;936;-84
2022/12/23 01:29:59;;;;;;;16.85;10.10;;;;;;;12.74;68.53;99723.78;672384;29;1259;-83
2022/12/23 01:30:20;;;;;;;16.87;10.00;;;;;;;12.71;68.51;99710.66;672537;29;1024;-84
2022/12/23 01:30:40;;;;;;;17.33;9.68;;;;;;;12.68;68.51;99708.03;675037;29;1970;-84
2022/12/23 01:31:04;;;;;;;16.55;9.35;;;;;;;12.74;68.36;99724.63;675142;29;1179;-84
2022/12/23 01:31:26;;;;;;;15.38;9.30;;;;;;;12.73;68.51;99742.97;672482;29;1240;-84
2022/12/23 01:31:47;;;;;;;15.13;9.27;;;;;;;12.73;68.65;99727.25;674987;29;1350;-84
2022/12/23 01:32:08;;;;;;;19.00;10.13;;;;;;;12.68;68.42;99719.41;674909;29;1191;-84
2022/12/23 01:32:28;;;;;;;17.90;9.83;;;;;;;12.67;68.69;99719.38;672545;29;1059;-84
2022/12/23 01:32:49;;;;;;;17.55;9.75;;;;;;;12.68;68.42;99731.59;675075;29;946;-83
2022/12/23 01:33:09;;;;;;;16.60;9.30;;;;;;;12.65;68.69;99732.47;675104;29;1211;-83
2022/12/23 01:33:31;;;;;;;18.02;9.80;;;;;;;12.69;68.74;99738.59;674948;29;1153;-83
2022/12/23 01:33:53;;;;;;;20.48;10.25;;;;;;;12.66;68.49;99733.34;675133;29;1330;-84
2022/12/23 01:34:13;;;;;;;19.95;10.02;;;;;;;12.71;68.61;99736.84;672445;29;1110;-84
2022/12/23 01:34:34;;;;;;;18.95;10.00;;;;;;;12.66;68.70;99726.34;667387;29;1207;-84
2022/12/23 01:34:54;;;;;;;17.95;10.00;;;;;;;12.72;68.43;99743.84;667498;29;867;-84
2022/12/23 01:35:15;;;;;;;18.10;10.20;;;;;;;12.71;68.52;99736.84;667285;29;1144;-84
2022/12/23 01:35:35;;;;;;;16.75;10.18;;;;;;;12.68;68.70;99737.72;667294;29;1217;-83
2022/12/23 01:36:06;;;;;;;18.23;9.77;;;;;;;12.66;68.79;99733.34;670013;29;1185;-84
2022/12/23 01:36:27;;;;;;;20.52;10.00;;;;;;;12.67;68.61;99745.56;669981;29;1083;-83
2022/12/23 01:36:48;;;;;;;20.90;10.30;;;;;;;12.60;68.53;99724.59;669635;29;1174;-84
2022/12/23 01:37:08;;;;;;;20.88;10.90;;;;;;;12.66;69.03;99749.06;669841;29;988;-84
2022/12/23 01:37:29;;;;;;;20.92;10.68;;;;;;;12.63;68.89;99744.69;672379;29;1144;-84
2022/12/23 01:37:49;;;;;;;19.47;10.77;;;;;;;12.59;68.88;99727.22;675138;29;835;-84
2022/12/23 01:38:10;;;;;;;18.33;10.80;;;;;;;12.59;68.89;99735.94;677539;29;1213;-84
2022/12/23 01:38:32;;;;;;;15.63;10.43;;;;;;;12.56;68.90;99732.44;672540;29;1209;-84
2022/12/23 01:38:55;;;;;;;17.60;10.02;;;;;;;12.60;68.96;99740.31;664890;29;1308;-84
2022/12/23 01:39:15;;;;;;;21.00;9.80;;;;;;;12.58;69.04;99735.94;667227;29;1290;-84
2022/12/23 01:39:36;;;;;;;22.25;10.65;;;;;;;12.54;68.97;99731.56;672469;29;896;-84
2022/12/23 01:39:56;;;;;;;21.10;11.30;;;;;;;12.61;68.95;99735.97;675092;29;1303;-84
2022/12/23 01:40:17;;;;;;;19.80;11.97;;;;;;;12.63;69.14;99743.78;674944;29;1234;-83
2022/12/23 01:40:43;;;;;;;20.05;11.43;;;;;;;12.59;68.83;99738.56;675067;29;974;-84
2022/12/23 01:41:04;;;;;;;18.40;10.35;;;;;;;12.61;69.04;99747.28;672374;29;1386;-84
2022/12/23 01:42:52;;;;;;;23.60;11.20;;;;;;;12.57;69.32;99740.31;669937;29;907;-84
2022/12/23 01:43:17;;;;;;;19.03;10.73;;;;;;;12.63;69.20;99749.03;670617;29;1308;-84
2022/12/23 01:43:48;;;;;;;20.45;10.60;;;;;;;12.69;69.04;99754.28;672418;29;1091;-84
2022/12/23 01:44:45;;;;;;;22.10;11.25;;;;;;;12.69;68.95;99759.53;667308;29;1001;-83
2022/12/23 01:45:18;;;;;;;20.00;10.20;;;;;;;12.69;68.92;99754.28;672380;29;999;-83
2022/12/23 01:45:38;;;;;;;19.40;10.50;;;;;;;12.63;69.26;99744.69;670070;29;1191;-84
2022/12/23 01:45:59;;;;;;;19.83;10.70;;;;;;;12.65;69.24;99749.94;673718;29;1134;-84
2022/12/23 01:46:20;;;;;;;21.88;10.57;;;;;;;12.66;68.92;99743.81;672457;29;1146;-84
2022/12/23 01:46:40;;;;;;;21.00;10.90;;;;;;;12.71;69.12;99742.06;674930;29;1012;-84
2022/12/23 01:47:02;;;;;;;19.77;10.70;;;;;;;12.73;68.89;99759.53;672322;29;1114;-84
2022/12/23 01:47:44;;;;;;;18.20;10.80;;;;;;;12.61;69.27;99743.81;675058;29;1546;-84
2022/12/23 01:48:18;;;;;;;21.77;11.70;;;;;;;12.60;69.13;99745.53;667338;29;1153;-84
2022/12/23 01:48:40;;;;;;;21.40;10.90;;;;;;;12.64;69.08;99751.66;669886;29;1098;-83
2022/12/23 01:49:01;;;;;;;20.75;11.05;;;;;;;12.63;69.27;99755.16;669751;29;1426;-84
2022/12/23 01:49:22;;;;;;;19.50;11.00;;;;;;;12.58;69.43;99734.19;672360;29;1257;-83
2022/12/23 01:49:42;;;;;;;21.73;11.70;;;;;;;12.71;69.23;99752.53;672558;29;1087;-84
2022/12/23 01:50:08;;;;;;;21.08;11.57;;;;;;;12.68;69.08;99753.44;672426;29;1098;-84
2022/12/23 01:50:39;;;;;;;23.08;11.88;;;;;;;12.65;69.17;99752.53;672366;29;1356;-84
2022/12/23 01:51:10;;;;;;;20.45;12.05;;;;;;;12.67;69.09;99758.66;674974;29;1107;-84
2022/12/23 01:51:31;;;;;;;18.63;12.30;;;;;;;12.63;69.39;99749.91;669737;29;1116;-84
2022/12/23 01:51:52;;;;;;;18.65;12.00;;;;;;;12.63;69.21;99746.41;669798;29;1331;-83
2022/12/23 01:52:13;;;;;;;17.83;11.80;;;;;;;12.66;69.44;99760.38;674949;29;1229;-84
2022/12/23 01:52:46;;;;;;;18.48;11.70;;;;;;;12.64;69.29;99750.81;674988;29;1084;-84
2022/12/23 01:53:20;;;;;;;19.45;12.18;;;;;;;12.62;69.25;99753.41;669796;29;1116;-84
2022/12/23 01:53:48;;;;;;;19.83;11.77;;;;;;;12.67;69.10;99756.03;672426;29;1152;-83
2022/12/23 01:54:09;;;;;;;20.25;11.60;;;;;;;12.61;69.00;99744.66;672219;29;1369;-84
2022/12/23 01:54:30;;;;;;;19.33;11.63;;;;;;;12.63;69.09;99754.25;672429;29;1251;-84
2022/12/23 01:54:51;;;;;;;21.25;11.90;;;;;;;12.72;69.39;99757.78;669931;29;1351;-83
2022/12/23 01:55:15;;;;;;;22.35;12.10;;;;;;;12.68;68.95;99756.06;669843;29;1092;-84
2022/12/23 01:55:58;;;;;;;21.10;12.00;;;;;;;12.69;69.13;99747.31;669689;29;1270;-84
2022/12/23 01:56:23;;;;;;;18.35;11.50;;;;;;;12.66;69.06;99749.91;672488;29;1100;-84
2022/12/23 01:57:03;;;;;;;17.70;11.27;;;;;;;12.72;69.00;99764.78;669705;29;1223;-84
2022/12/23 01:57:24;;;;;;;17.95;11.95;;;;;;;12.67;69.08;99756.91;672477;29;879;-84
2022/12/23 01:57:46;;;;;;;17.77;12.30;;;;;;;12.73;68.87;99756.06;672435;29;1372;-84
2022/12/23 01:58:14;;;;;;;19.35;13.07;;;;;;;12.68;69.13;99747.31;672388;29;1220;-83
2022/12/23 01:58:42;;;;;;;19.13;12.68;;;;;;;12.72;69.10;99751.69;675071;29;1160;-83
2022/12/23 02:04:01;;;;;;;21.63;13.48;;;;;;;13.02;68.23;99752.66;672529;29;829;-84
2022/12/23 02:04:24;;;;;;;19.98;13.45;;;;;;;13.10;67.96;99750.06;675123;29;1227;-84
2022/12/23 02:04:46;;;;;;;20.10;12.80;;;;;;;13.16;68.04;99757.91;675021;29;1075;-84
2022/12/23 02:05:07;;;;;;;19.90;12.43;;;;;;;13.11;67.95;99743.94;677553;29;1464;-84
2022/12/23 02:05:28;;;;;;;22.05;12.70;;;;;;;13.13;67.54;99756.16;675013;29;1322;-84
2022/12/23 02:05:50;;;;;;;21.90;13.27;;;;;;;13.26;67.49;99764.03;669950;29;758;-83
2022/12/23 02:09:15;;;;;;;22.88;14.40;;;;;;;13.04;67.73;99744.78;675043;29;1119;-84
2022/12/23 02:09:39;;;;;;;19.75;14.07;;;;;;;13.00;68.12;99750.03;672355;29;1134;-84
2022/12/23 02:09:59;;;;;;;19.20;13.68;;;;;;;13.03;68.26;99751.78;672307;29;1342;-84
2022/12/23 02:10:29;;;;;;;19.40;13.70;;;;;;;13.07;68.14;99758.78;675003;29;1112;-84
2022/12/23 02:11:28;;;;;;;19.85;13.82;;;;;;;13.09;67.96;99770.13;674873;29;1911;-84